Hauptseite
METAR-TAF:

METAR-TAF

Flughäfen :

RAF Odiham

Odiham, England

Breite: 51-14N, Länge: 000-57W, Höhe: 123 m

Beobachtung

Neuester Wetterbericht von vor 41 Minuten, um 18:50 UTC
Wind 4 kt aus West/Nordwest
Temperatur 14°C
Luftfeuchtigkeit 82%
Luftdruck 1028 hPa
Sichtweite 10 km oder mehr

METAR: EGVO 211850Z AUTO 29004KT 9999 BKN026/// 14/11 Q1028

Zeit: 20:31 (19:31 UTC)


TAF: fehlend

Wetterbeobachtungen und Prognosen von mehr als 4000 Flughäfen (METAR und TAF Bericht).

Die verfügbaren Stationen werden durch gelbe und rote Markierungen auf der Karte dargestellt.

Führen Sie die Maus auf sie, um den Namen der Station zu sehen.

Darauf klicken, um die Beobachtung von Wetterbeobachtungen und Prognosen zu sehen.

Um die Karte zu ändern : klicken Sie auf den grünen Tasten mit einem schwarzen Kreuz Zum Vergrößern, auf den grünen Button mit einem Gedankenstrich zu verkleinern, oder auf die grünen Pfeile für benachbarte Karten.


METAR-TAF: